createdAt,value
2022-12-18T00:00:34.928Z,-3.60
2022-12-18T00:05:58.351Z,-3.60
2022-12-18T00:11:15.381Z,-3.60
2022-12-18T00:16:22.235Z,-3.60
2022-12-18T00:21:25.818Z,-3.60
2022-12-18T00:26:32.249Z,-3.60
2022-12-18T00:31:36.196Z,-3.60
2022-12-18T00:36:39.971Z,-3.60
2022-12-18T00:42:01.734Z,-3.60
2022-12-18T00:47:04.970Z,-3.50
2022-12-18T00:52:08.475Z,-3.50
2022-12-18T00:57:11.861Z,-3.50
2022-12-18T01:02:15.556Z,-3.50
2022-12-18T01:07:19.069Z,-3.50
2022-12-18T01:12:22.528Z,-3.50
2022-12-18T01:17:26.249Z,-3.50
2022-12-18T01:22:29.700Z,-3.50
2022-12-18T01:27:34.552Z,-3.50
2022-12-18T01:32:38.030Z,-3.50
2022-12-18T01:37:41.534Z,-3.50
2022-12-18T01:42:44.931Z,-3.50
2022-12-18T01:48:08.429Z,-3.50
2022-12-18T01:53:18.690Z,-3.50
2022-12-18T01:58:29.387Z,-3.50
2022-12-18T02:03:32.992Z,-3.50
2022-12-18T02:08:50.097Z,-3.50
2022-12-18T02:13:53.508Z,-3.40
2022-12-18T02:19:05.948Z,-3.40
2022-12-18T02:24:29.940Z,-3.50
2022-12-18T02:29:37.187Z,-3.40
2022-12-18T02:34:42.219Z,-3.50
2022-12-18T02:39:48.890Z,-3.40
2022-12-18T02:44:53.389Z,-3.40
2022-12-18T02:49:59.868Z,-3.40
2022-12-18T02:55:19.107Z,-3.40
2022-12-18T03:00:26.250Z,-3.40
2022-12-18T03:05:44.890Z,-3.40
2022-12-18T03:11:44.530Z,-3.30
2022-12-18T03:16:50.436Z,-3.40
2022-12-18T03:21:57.523Z,-3.40
2022-12-18T03:27:05.110Z,-3.30
2022-12-18T03:32:25.503Z,-3.40
2022-12-18T03:37:29.248Z,-3.40
2022-12-18T03:42:53.369Z,-3.40
2022-12-18T03:48:18.230Z,-3.40
2022-12-18T03:53:27.690Z,-3.40
2022-12-18T03:58:33.675Z,-3.30
2022-12-18T04:03:39.105Z,-3.30
2022-12-18T04:08:43.258Z,-3.30
2022-12-18T04:13:46.747Z,-3.30
2022-12-18T04:18:50.297Z,-3.20
2022-12-18T04:23:53.926Z,-3.30
2022-12-18T04:28:57.360Z,-3.30
2022-12-18T04:34:00.832Z,-3.30
2022-12-18T04:39:04.273Z,-3.30
2022-12-18T04:44:07.737Z,-3.30
2022-12-18T04:49:12.341Z,-3.30
2022-12-18T04:54:15.980Z,-3.30
2022-12-18T04:59:19.600Z,-3.30
2022-12-18T05:04:51.006Z,-3.30
2022-12-18T05:09:54.367Z,-3.30
2022-12-18T05:14:57.778Z,-3.30
2022-12-18T05:20:00.918Z,-3.30
2022-12-18T05:25:04.485Z,-3.40
2022-12-18T05:30:08.298Z,-3.40
2022-12-18T05:35:13.017Z,-3.40
2022-12-18T05:40:16.405Z,-3.40
2022-12-18T05:45:19.527Z,-3.40
2022-12-18T05:50:22.844Z,-3.40
2022-12-18T05:55:26.265Z,-3.40
2022-12-18T06:00:29.698Z,-3.50
2022-12-18T06:05:38.180Z,-3.50
2022-12-18T06:10:42.681Z,-3.60
2022-12-18T06:15:46.089Z,-3.60
2022-12-18T06:20:57.848Z,-3.60
2022-12-18T06:26:06.958Z,-3.70
2022-12-18T06:31:11.011Z,-3.80
2022-12-18T06:36:15.208Z,-3.80
2022-12-18T06:41:20.494Z,-3.90
2022-12-18T06:46:23.627Z,-4.00
2022-12-18T06:51:27.627Z,-4.10
2022-12-18T06:56:30.968Z,-4.20
2022-12-18T07:01:34.597Z,-4.20
2022-12-18T07:06:38.207Z,-4.30
2022-12-18T07:11:41.779Z,-4.40
2022-12-18T07:16:45.251Z,-4.50
2022-12-18T07:21:48.728Z,-4.60
2022-12-18T07:26:51.948Z,-4.60
2022-12-18T07:31:55.735Z,-4.70
2022-12-18T07:36:59.494Z,-4.70
2022-12-18T07:42:21.406Z,-4.70
2022-12-18T07:47:25.877Z,-4.70
2022-12-18T07:52:29.765Z,-4.80
2022-12-18T07:57:50.228Z,-4.80
2022-12-18T08:02:55.452Z,-4.70
2022-12-18T08:08:00.009Z,-4.70
2022-12-18T08:13:05.304Z,-4.70
2022-12-18T08:18:13.896Z,-4.70
2022-12-18T08:23:17.912Z,-4.70
2022-12-18T08:28:21.823Z,-4.60
2022-12-18T08:33:26.316Z,-4.60
2022-12-18T08:38:29.847Z,-4.60
2022-12-18T08:43:52.122Z,-4.60
2022-12-18T08:48:57.311Z,-4.70
2022-12-18T08:54:00.897Z,-4.70
2022-12-18T08:59:05.937Z,-4.70
2022-12-18T09:04:10.900Z,-4.70
2022-12-18T09:09:14.740Z,-4.70
2022-12-18T09:14:18.342Z,-4.70
2022-12-18T09:19:22.401Z,-4.60
2022-12-18T09:24:25.594Z,-4.50
2022-12-18T09:29:28.877Z,-4.40
2022-12-18T09:34:32.440Z,-4.40
2022-12-18T09:39:39.118Z,-4.40
2022-12-18T09:44:47.763Z,-4.30
2022-12-18T09:49:59.887Z,-4.30
2022-12-18T09:55:40.722Z,-4.30
2022-12-18T10:00:44.648Z,-4.30
2022-12-18T10:06:21.218Z,-4.30
2022-12-18T10:11:30.269Z,-4.20
2022-12-18T10:16:57.211Z,-4.10
2022-12-18T10:22:20.733Z,-4.10
2022-12-18T10:27:28.277Z,-4.20
2022-12-18T10:32:32.444Z,-4.20
2022-12-18T10:37:35.725Z,-4.10
2022-12-18T10:42:39.012Z,-4.20
2022-12-18T10:47:50.680Z,-4.20
2022-12-18T10:52:59.066Z,-4.20
2022-12-18T10:58:33.591Z,-4.30
2022-12-18T11:03:46.989Z,-4.20
2022-12-18T11:09:05.358Z,-4.20
2022-12-18T11:14:25.588Z,-4.20
2022-12-18T11:19:39.867Z,-4.20
2022-12-18T11:24:43.437Z,-4.20
2022-12-18T11:29:47.774Z,-4.30
2022-12-18T11:34:59.771Z,-4.40
2022-12-18T11:40:13.035Z,-4.40
2022-12-18T11:45:24.326Z,-4.30
2022-12-18T11:50:39.696Z,-4.30
2022-12-18T11:55:42.998Z,-4.20
2022-12-18T12:01:16.430Z,-4.20
2022-12-18T12:06:22.836Z,-4.20
2022-12-18T12:11:58.881Z,-4.20
2022-12-18T12:17:23.027Z,-4.30
2022-12-18T12:23:00.258Z,-4.30
2022-12-18T12:28:15.187Z,-4.40
2022-12-18T12:34:01.508Z,-4.50
2022-12-18T12:39:13.651Z,-4.60
2022-12-18T12:44:27.006Z,-4.70
2022-12-18T12:49:50.434Z,-4.80
2022-12-18T12:54:56.941Z,-4.80
2022-12-18T13:00:15.207Z,-4.80
2022-12-18T13:05:29.751Z,-4.70
2022-12-18T13:10:43.407Z,-4.70
2022-12-18T13:15:50.367Z,-4.70
2022-12-18T13:21:02.953Z,-4.80
2022-12-18T13:26:11.139Z,-4.80
2022-12-18T13:31:40.655Z,-4.90
2022-12-18T13:36:44.867Z,-4.90
2022-12-18T13:42:09.946Z,-4.90
2022-12-18T13:47:39.346Z,-4.90
2022-12-18T13:52:45.598Z,-5.00
2022-12-18T13:57:49.377Z,-5.10
2022-12-18T14:03:27.988Z,-5.10
2022-12-18T14:08:42.615Z,-5.30
2022-12-18T14:13:48.427Z,-5.30
2022-12-18T14:19:02.229Z,-5.40
2022-12-18T14:24:25.058Z,-5.40
2022-12-18T14:29:31.078Z,-5.40
2022-12-18T14:34:34.728Z,-5.40
2022-12-18T14:39:38.556Z,-5.50
2022-12-18T14:45:05.020Z,-5.40
2022-12-18T14:50:13.857Z,-5.40
2022-12-18T14:55:19.418Z,-5.30
2022-12-18T15:00:26.005Z,-5.30
2022-12-18T15:05:32.817Z,-5.30
2022-12-18T15:10:48.106Z,-5.30
2022-12-18T15:15:54.625Z,-5.30
2022-12-18T15:21:02.868Z,-5.30
2022-12-18T15:26:12.148Z,-5.40
2022-12-18T15:31:17.798Z,-5.40
2022-12-18T15:36:30.927Z,-5.40
2022-12-18T15:41:39.675Z,-5.40
2022-12-18T15:46:44.313Z,-5.40
2022-12-18T15:51:54.009Z,-5.40
2022-12-18T15:57:18.018Z,-5.30
2022-12-18T16:02:24.978Z,-5.30
2022-12-18T16:07:30.896Z,-5.30
2022-12-18T16:12:35.740Z,-5.30
2022-12-18T16:17:42.740Z,-5.20
2022-12-18T16:22:48.868Z,-5.20
2022-12-18T16:28:16.077Z,-5.20
2022-12-18T16:33:22.077Z,-5.20
2022-12-18T16:38:27.506Z,-5.20
2022-12-18T16:43:35.661Z,-5.10
2022-12-18T16:48:41.271Z,-5.20
2022-12-18T16:53:46.483Z,-5.20
2022-12-18T16:58:58.188Z,-5.20
2022-12-18T17:04:09.336Z,-5.20
2022-12-18T17:09:22.967Z,-5.20
2022-12-18T17:14:29.387Z,-5.30
2022-12-18T17:19:37.007Z,-5.30
2022-12-18T17:24:43.373Z,-5.30
2022-12-18T17:29:48.790Z,-5.40
2022-12-18T17:35:05.373Z,-5.30
2022-12-18T17:40:13.797Z,-5.30
2022-12-18T17:45:21.086Z,-5.40
2022-12-18T17:50:26.553Z,-5.40
2022-12-18T17:55:32.193Z,-5.40
2022-12-18T18:00:37.738Z,-5.40
2022-12-18T18:06:11.805Z,-5.50
2022-12-18T18:11:37.840Z,-5.50
2022-12-18T18:16:45.820Z,-5.50
2022-12-18T18:21:51.785Z,-5.50
2022-12-18T18:26:57.183Z,-5.60
2022-12-18T18:32:02.168Z,-5.50
2022-12-18T18:37:09.112Z,-5.60
2022-12-18T18:42:14.179Z,-5.60
2022-12-18T18:47:18.759Z,-5.60
2022-12-18T18:52:23.726Z,-5.70
2022-12-18T18:57:30.439Z,-5.70
2022-12-18T19:02:39.164Z,-5.70
2022-12-18T19:07:44.043Z,-5.70
2022-12-18T19:13:10.177Z,-5.70
2022-12-18T19:18:21.376Z,-5.70
2022-12-18T19:23:32.657Z,-5.90
2022-12-18T19:28:37.706Z,-5.90
2022-12-18T19:33:44.587Z,-6.00
2022-12-18T19:38:51.087Z,-6.00
2022-12-18T19:43:59.869Z,-6.10
2022-12-18T19:49:06.570Z,-6.10
2022-12-18T19:54:16.201Z,-6.20
2022-12-18T19:59:23.538Z,-6.20
2022-12-18T20:04:30.189Z,-6.10
2022-12-18T20:09:34.868Z,-6.20
2022-12-18T20:14:41.128Z,-6.20
2022-12-18T20:19:49.958Z,-6.30
2022-12-18T20:24:56.015Z,-6.30
2022-12-18T20:30:00.726Z,-6.30
2022-12-18T20:35:05.584Z,-6.40
2022-12-18T20:40:11.738Z,-6.40
2022-12-18T20:45:18.477Z,-6.40
2022-12-18T20:50:22.468Z,-6.40
2022-12-18T20:55:27.144Z,-6.40
2022-12-18T21:00:30.939Z,-6.50
2022-12-18T21:05:37.259Z,-6.40
2022-12-18T21:10:43.703Z,-6.40
2022-12-18T21:15:47.998Z,-6.40
2022-12-18T21:20:51.668Z,-6.40
2022-12-18T21:25:57.517Z,-6.30
2022-12-18T21:31:02.920Z,-6.30
2022-12-18T21:36:11.839Z,-6.30
2022-12-18T21:41:42.132Z,-6.30
2022-12-18T21:46:55.187Z,-6.30
2022-12-18T21:52:03.546Z,-6.20
2022-12-18T21:57:09.611Z,-6.20
2022-12-18T22:02:15.783Z,-6.20
2022-12-18T22:07:19.636Z,-6.20
2022-12-18T22:12:43.566Z,-6.20
2022-12-18T22:17:47.159Z,-6.10
2022-12-18T22:22:52.087Z,-6.10
2022-12-18T22:28:14.858Z,-6.10
2022-12-18T22:33:19.809Z,-6.10
2022-12-18T22:38:23.512Z,-6.10
2022-12-18T22:43:26.908Z,-6.10
2022-12-18T22:48:30.686Z,-6.10
2022-12-18T22:53:34.656Z,-6.00
2022-12-18T22:58:39.290Z,-6.00
2022-12-18T23:03:42.777Z,-6.00
2022-12-18T23:08:50.503Z,-6.00
2022-12-18T23:13:57.308Z,-6.00
2022-12-18T23:19:03.777Z,-6.00
2022-12-18T23:24:07.630Z,-6.00
2022-12-18T23:29:11.098Z,-6.00
2022-12-18T23:34:15.865Z,-6.00
2022-12-18T23:39:28.745Z,-6.00
2022-12-18T23:44:34.324Z,-6.00
2022-12-18T23:49:37.836Z,-6.00
2022-12-18T23:54:42.667Z,-6.00
2022-12-18T23:59:46.317Z,-6.00
